Time;durP1;ratioP1;P1;durP2;ratioP2;P2;SDS_P1;SDS_P2;PMS_P1;PMS_P2;Temp;Humidity;BMP_temperature;BMP_pressure;BME280_temperature;BME280_humidity;BME280_pressure;Samples;Min_cycle;Max_cycle;Signal;HPM_P1;HPM_P2
2023/10/24 00:01:13;;;;;;;5.90;4.63;;;;;;;;;;5049007;28;21025;-64
2023/10/24 00:03:39;;;;;;;7.75;4.47;;;;;;;;;;5049940;28;20036;-64
2023/10/24 00:06:05;;;;;;;6.90;4.40;;;;;;;;;;5068623;28;20044;-63
2023/10/24 00:08:31;;;;;;;5.35;4.03;;;;;;;;;;5066684;28;20114;-64
2023/10/24 00:11:01;;;;;;;6.35;4.50;;;;;;;;;;5067789;28;20043;-61
2023/10/24 00:13:27;;;;;;;5.68;4.03;;;;;;;;;;5065941;28;20032;-63
2023/10/24 00:15:53;;;;;;;6.60;4.65;;;;;;;;;;5061714;28;20055;-62
2023/10/24 00:18:19;;;;;;;7.78;4.30;;;;;;;;;;5067254;28;20089;-63
2023/10/24 00:20:45;;;;;;;6.30;4.03;;;;;;;;;;5067570;28;20404;-65
2023/10/24 00:23:12;;;;;;;9.02;5.00;;;;;;;;;;5068164;28;20072;-64
2023/10/24 00:25:41;;;;;;;5.43;3.88;;;;;;;;;;5061135;28;20071;-64
2023/10/24 00:28:07;;;;;;;7.40;4.25;;;;;;;;;;5066477;28;20102;-64
2023/10/24 00:30:33;;;;;;;7.85;4.78;;;;;;;;;;5049556;28;20506;-64
2023/10/24 00:32:59;;;;;;;6.22;4.25;;;;;;;;;;5056543;28;20072;-62
2023/10/24 00:35:25;;;;;;;7.50;4.20;;;;;;;;;;5049598;28;20128;-61
2023/10/24 00:37:56;;;;;;;6.32;4.05;;;;;;;;;;5067793;28;20036;-63
2023/10/24 00:40:23;;;;;;;6.68;4.57;;;;;;;;;;5067198;28;20036;-62
2023/10/24 00:42:50;;;;;;;6.20;3.83;;;;;;;;;;5064329;28;20036;-63
2023/10/24 00:45:17;;;;;;;9.65;4.35;;;;;;;;;;5056954;28;20048;-64
2023/10/24 00:47:43;;;;;;;7.13;4.18;;;;;;;;;;5067265;28;20082;-63
2023/10/24 00:50:10;;;;;;;6.30;4.10;;;;;;;;;;5068075;28;20326;-63
2023/10/24 00:52:37;;;;;;;6.88;4.00;;;;;;;;;;5060162;28;20033;-63
2023/10/24 00:55:03;;;;;;;6.82;4.25;;;;;;;;;;5066028;28;20456;-63
2023/10/24 00:57:29;;;;;;;8.55;4.57;;;;;;;;;;5055851;28;20052;-63
2023/10/24 00:59:56;;;;;;;5.28;3.83;;;;;;;;;;5066130;28;20037;-63
2023/10/24 01:02:22;;;;;;;6.80;4.55;;;;;;;;;;5076068;28;20045;-62
2023/10/24 01:04:51;;;;;;;7.65;4.03;;;12.60;99.60;;;;;;5071102;28;20047;-64
2023/10/24 01:07:16;;;;;;;7.75;4.43;;;12.50;99.90;;;;;;5071816;28;20040;-64
2023/10/24 01:09:42;;;;;;;7.05;4.70;;;12.50;99.90;;;;;;5044796;28;20063;-64
2023/10/24 01:12:08;;;;;;;5.65;3.80;;;12.50;99.90;;;;;;5074097;28;20106;-64
2023/10/24 01:14:34;;;;;;;6.35;3.97;;;12.50;99.90;;;;;;5070915;28;20067;-64
2023/10/24 01:16:59;;;;;;;5.78;4.05;;;12.50;99.90;;;;;;5051092;28;20043;-64
2023/10/24 01:19:25;;;;;;;9.35;4.13;;;12.50;99.90;;;;;;5066963;28;20545;-63
2023/10/24 01:21:51;;;;;;;7.18;3.92;;;12.50;99.90;;;;;;5052007;28;20051;-63
2023/10/24 01:24:17;;;;;;;7.03;4.18;;;12.50;99.90;;;;;;5069289;28;20040;-63
2023/10/24 01:26:43;;;;;;;7.47;4.07;;;12.50;99.90;;;;;;5068601;28;20090;-64
2023/10/24 01:29:12;;;;;;;6.68;4.53;;;12.50;99.90;;;;;;5070208;28;20687;-64
2023/10/24 01:31:38;;;;;;;8.45;4.72;;;12.50;99.90;;;;;;5067112;28;20047;-63
2023/10/24 01:34:04;;;;;;;6.30;4.30;;;12.50;99.90;;;;;;5071137;28;20056;-64
2023/10/24 01:36:30;;;;;;;7.45;4.65;;;12.40;99.90;;;;;;5064405;28;20098;-63
2023/10/24 01:38:59;;;;;;;7.40;3.88;;;;;;;;;;5071056;28;20050;-64
2023/10/24 01:41:25;;;;;;;6.15;4.70;;;;;;;;;;5051398;28;20648;-64
2023/10/24 01:43:52;;;;;;;6.13;3.88;;;;;;;;;;5069312;28;20144;-63
2023/10/24 01:46:18;;;;;;;6.25;4.28;;;;;;;;;;5060641;28;20378;-64
2023/10/24 01:48:44;;;;;;;6.07;4.50;;;;;;;;;;5056966;28;20512;-63
2023/10/24 01:51:10;;;;;;;6.13;4.15;;;;;;;;;;5061894;28;20065;-63
2023/10/24 01:53:36;;;;;;;6.68;4.38;;;;;;;;;;5059518;28;20040;-62
2023/10/24 01:56:02;;;;;;;6.32;4.43;;;;;;;;;;5062137;28;20083;-63
2023/10/24 01:58:28;;;;;;;6.50;4.28;;;;;;;;;;5069704;28;20344;-63
2023/10/24 02:00:55;;;;;;;5.50;4.30;;;;;;;;;;5061182;28;20057;-63
2023/10/24 02:03:21;;;;;;;7.88;4.70;;;;;;;;;;5052213;28;20039;-62
2023/10/24 02:05:47;;;;;;;7.05;4.72;;;;;;;;;;5060553;28;20029;-64
2023/10/24 02:08:13;;;;;;;7.72;4.32;;;;;;;;;;5058520;28;20047;-63
2023/10/24 02:10:39;;;;;;;5.63;4.20;;;;;;;;;;5046776;28;20488;-63
2023/10/24 02:13:05;;;;;;;4.82;4.32;;;;;;;;;;5070408;28;20052;-63
2023/10/24 02:15:31;;;;;;;7.60;4.38;;;;;;;;;;5042487;28;20127;-62
2023/10/24 02:17:57;;;;;;;6.70;4.20;;;;;;;;;;5067290;28;20040;-63
2023/10/24 02:20:23;;;;;;;6.65;4.03;;;;;;;;;;5069797;28;20052;-63
2023/10/24 02:22:49;;;;;;;7.60;4.63;;;;;;;;;;5070037;28;20064;-63
2023/10/24 02:25:15;;;;;;;6.78;4.75;;;;;;;;;;5069029;28;20040;-63
2023/10/24 02:27:41;;;;;;;5.13;3.70;;;;;;;;;;5066811;28;20052;-63
2023/10/24 02:30:09;;;;;;;7.68;4.22;;;;;;;;;;5051088;28;20044;-63
2023/10/24 02:32:35;;;;;;;4.95;3.65;;;;;;;;;;5050525;28;20124;-63
2023/10/24 02:35:01;;;;;;;8.27;4.25;;;;;;;;;;5068712;28;20045;-63
2023/10/24 02:37:27;;;;;;;5.80;3.78;;;;;;;;;;5068424;28;20101;-62
2023/10/24 02:39:53;;;;;;;5.07;3.75;;;;;;;;;;5069005;28;20414;-63
2023/10/24 02:42:19;;;;;;;6.28;4.07;;;;;;;;;;5069427;28;20451;-63
2023/10/24 02:44:49;;;;;;;6.15;3.95;;;;;;;;;;5066937;28;20444;-63
2023/10/24 02:47:15;;;;;;;7.10;4.88;;;;;;;;;;5060313;28;20041;-63
2023/10/24 02:49:41;;;;;;;6.25;3.78;;;;;;;;;;5066998;28;20055;-63
2023/10/24 02:52:07;;;;;;;6.97;3.80;;;;;;;;;;5069710;28;20080;-63
2023/10/24 02:54:34;;;;;;;5.97;4.10;;;;;;;;;;5067510;28;20132;-63
2023/10/24 02:57:00;;;;;;;5.82;3.35;;;;;;;;;;5063563;28;20174;-63
2023/10/24 02:59:26;;;;;;;4.72;3.42;;;;;;;;;;5068107;28;20037;-63
2023/10/24 03:01:52;;;;;;;7.65;4.63;;;;;;;;;;5068600;28;20111;-63
2023/10/24 03:04:19;;;;;;;5.70;3.63;;;;;;;;;;5062160;28;20063;-63
2023/10/24 03:06:45;;;;;;;6.07;4.65;;;;;;;;;;5061771;28;20131;-63
2023/10/24 03:09:11;;;;;;;4.80;3.72;;;;;;;;;;5050962;28;20036;-63
2023/10/24 03:11:37;;;;;;;5.57;3.88;;;;;;;;;;5050444;28;20067;-64
2023/10/24 03:14:03;;;;;;;6.18;3.80;;;;;;;;;;5067458;28;20040;-63
2023/10/24 03:16:29;;;;;;;5.32;3.67;;;;;;;;;;5065917;28;20040;-63
2023/10/24 03:18:56;;;;;;;4.50;3.20;;;;;;;;;;5060765;28;20052;-62
2023/10/24 03:21:22;;;;;;;5.60;3.85;;;;;;;;;;5066010;28;20471;-63
2023/10/24 03:23:48;;;;;;;4.55;3.58;;;;;;;;;;5067609;28;20048;-62
2023/10/24 03:26:14;;;;;;;3.95;2.90;;;;;;;;;;5049648;28;20059;-63
2023/10/24 03:28:42;;;;;;;6.50;3.50;;;;;;;;;;5063788;28;20056;-63
2023/10/24 03:31:08;;;;;;;4.90;3.08;;;;;;;;;;5067678;28;20419;-63
2023/10/24 03:33:34;;;;;;;4.68;2.85;;;;;;;;;;5061222;28;20032;-63
2023/10/24 03:36:01;;;;;;;4.72;2.83;;;;;;;;;;5068810;28;20044;-62
2023/10/24 03:38:28;;;;;;;5.38;3.63;;;;;;;;;;5068082;28;20153;-63
2023/10/24 03:40:54;;;;;;;4.47;3.22;;;;;;;;;;5067447;28;20174;-63
2023/10/24 03:43:21;;;;;;;4.65;3.03;;;;;;;;;;5067911;28;20036;-63
2023/10/24 03:45:48;;;;;;;4.82;2.90;;;;;;;;;;5059489;28;20039;-63
2023/10/24 03:48:14;;;;;;;2.97;2.35;;;;;;;;;;5067840;28;20043;-64
2023/10/24 03:50:40;;;;;;;4.43;2.97;;;;;;;;;;5070969;28;20123;-63
2023/10/24 03:53:06;;;;;;;4.80;3.00;;;;;;;;;;5062366;28;20040;-63
2023/10/24 03:55:33;;;;;;;3.17;2.45;;;;;;;;;;5067754;28;20078;-63
2023/10/24 03:57:59;;;;;;;4.63;3.20;;;;;;;;;;5037109;28;20056;-63
2023/10/24 04:00:27;;;;;;;3.55;2.65;;;;;;;;;;5067204;28;20205;-63
2023/10/24 04:02:53;;;;;;;4.20;2.95;;;;;;;;;;5068868;28;20119;-63
2023/10/24 04:05:19;;;;;;;4.05;2.72;;;;;;;;;;5069508;28;20056;-63
2023/10/24 04:07:45;;;;;;;3.95;2.40;;;;;;;;;;5060724;28;20041;-63
2023/10/24 04:10:13;;;;;;;4.38;3.10;;;;;;;;;;5067436;28;20040;-64
2023/10/24 04:12:39;;;;;;;4.00;3.00;;;;;;;;;;5068364;28;20044;-63
2023/10/24 04:15:05;;;;;;;3.58;2.47;;;;;;;;;;5044528;28;20075;-64
2023/10/24 04:17:35;;;;;;;3.42;2.38;;;;;;;;;;5045643;28;20149;-64
2023/10/24 04:20:02;;;;;;;3.42;2.80;;;;;;;;;;5061837;28;20115;-63
2023/10/24 04:22:28;;;;;;;4.10;2.72;;;;;;;;;;5068030;28;20048;-63
2023/10/24 04:24:54;;;;;;;4.32;2.78;;;;;;;;;;5067264;28;20055;-63
2023/10/24 04:27:20;;;;;;;3.85;2.35;;;;;;;;;;5065113;28;20029;-63
2023/10/24 04:29:47;;;;;;;3.20;1.90;;;;;;;;;;5066488;28;20040;-63
2023/10/24 04:32:13;;;;;;;4.35;2.20;;;;;;;;;;5070127;28;20549;-64
2023/10/24 04:34:39;;;;;;;3.35;1.92;;;;;;;;;;5070569;28;20048;-64
2023/10/24 04:37:06;;;;;;;4.13;2.92;;;;;;;;;;5070176;28;20037;-64
2023/10/24 04:39:32;;;;;;;3.58;2.70;;;;;;;;;;5050968;28;20055;-63
2023/10/24 04:41:58;;;;;;;4.30;2.65;;;;;;;;;;5068656;28;20170;-64
2023/10/24 04:44:24;;;;;;;4.72;2.53;;;;;;;;;;5067022;28;20025;-64
2023/10/24 04:46:50;;;;;;;4.03;2.33;;;;;;;;;;5051030;28;20264;-63
2023/10/24 04:49:17;;;;;;;4.22;2.53;;;;;;;;;;5049844;28;20087;-63
2023/10/24 04:51:43;;;;;;;3.13;2.42;;;;;;;;;;5059419;28;20140;-63
2023/10/24 04:54:10;;;;;;;3.95;2.60;;;;;;;;;;5049603;28;20052;-64
2023/10/24 04:56:36;;;;;;;4.63;2.30;;;;;;;;;;5064012;28;20055;-63
2023/10/24 04:59:02;;;;;;;4.82;2.90;;;;;;;;;;5069694;28;20368;-64
2023/10/24 05:01:29;;;;;;;4.90;2.83;;;;;;;;;;5064581;28;20047;-63
2023/10/24 05:03:55;;;;;;;3.80;2.65;;;;;;;;;;5061242;28;20064;-64
2023/10/24 05:06:21;;;;;;;3.88;2.70;;;;;;;;;;5065459;28;20455;-64
2023/10/24 05:08:48;;;;;;;4.60;2.33;;;;;;;;;;5060929;28;20045;-64
2023/10/24 05:11:14;;;;;;;4.90;2.47;;;;;;;;;;5068997;28;20380;-64
2023/10/24 05:13:40;;;;;;;3.50;2.28;;;;;;;;;;5047302;28;20138;-64
2023/10/24 05:16:06;;;;;;;4.13;2.78;;;;;;;;;;5067524;28;20416;-64
2023/10/24 05:18:32;;;;;;;4.93;2.75;;;;;;;;;;5070241;28;20051;-64
2023/10/24 05:20:58;;;;;;;3.78;2.67;;;;;;;;;;5032079;28;20087;-63
2023/10/24 05:23:24;;;;;;;3.75;2.60;;;;;;;;;;5070773;28;20087;-63
2023/10/24 05:25:51;;;;;;;5.68;3.30;;;;;;;;;;5073356;28;20036;-64
2023/10/24 05:28:17;;;;;;;4.45;3.22;;;;;;;;;;5067748;28;20045;-63
2023/10/24 05:30:43;;;;;;;4.53;3.28;;;;;;;;;;5068353;28;20197;-63
2023/10/24 05:33:09;;;;;;;4.10;2.95;;;;;;;;;;5063684;28;20593;-63
2023/10/24 05:35:35;;;;;;;4.78;3.03;;;;;;;;;;5068407;28;20040;-63
2023/10/24 05:38:01;;;;;;;3.85;2.75;;;;;;;;;;5064374;28;20076;-64
2023/10/24 05:40:27;;;;;;;4.45;2.88;;;;;;;;;;5063009;28;20238;-64
2023/10/24 05:42:53;;;;;;;5.75;4.15;;;;;;;;;;5067040;28;20056;-64
2023/10/24 05:45:22;;;;;;;4.78;3.10;;;;;;;;;;5069200;28;20045;-63
2023/10/24 05:47:48;;;;;;;3.63;3.00;;;;;;;;;;5064675;28;20110;-64
2023/10/24 05:50:14;;;;;;;4.53;3.30;;;;;;;;;;5061379;28;20040;-64
2023/10/24 05:52:40;;;;;;;4.70;3.35;;;;;;;;;;5057315;28;20090;-64
2023/10/24 05:55:06;;;;;;;5.00;3.60;;;;;;;;;;5063280;28;20482;-64
2023/10/24 05:57:34;;;;;;;5.65;3.60;;;;;;;;;;5061730;28;20036;-63
2023/10/24 06:00:01;;;;;;;4.85;3.72;;;;;;;;;;5066582;28;20117;-61
2023/10/24 06:02:27;;;;;;;6.20;3.80;;;;;;;;;;5068284;28;20047;-64
2023/10/24 06:04:53;;;;;;;6.32;3.78;;;;;;;;;;5067191;28;20472;-64
2023/10/24 06:07:19;;;;;;;4.95;4.00;;;;;;;;;;5066999;28;20533;-63
2023/10/24 06:09:45;;;;;;;6.53;3.78;;;;;;;;;;5066957;28;20071;-64
2023/10/24 06:12:11;;;;;;;5.55;4.25;;;;;;;;;;5050423;28;20075;-63
2023/10/24 06:14:37;;;;;;;5.30;3.42;;;;;;;;;;5060096;28;20457;-63
2023/10/24 06:17:04;;;;;;;4.95;3.45;;;;;;;;;;5068513;28;20046;-63
2023/10/24 06:19:33;;;;;;;4.97;3.65;;;;;;;;;;5064979;28;20041;-64
2023/10/24 06:21:59;;;;;;;9.15;4.07;;;;;;;;;;5063691;28;20043;-64
2023/10/24 06:24:25;;;;;;;5.70;3.63;;;;;;;;;;5067050;28;20045;-62
2023/10/24 06:26:51;;;;;;;7.22;4.20;;;;;;;;;;5069983;28;20111;-62
2023/10/24 06:29:18;;;;;;;4.43;3.60;;;;;;;;;;5068308;28;20028;-62
2023/10/24 06:31:44;;;;;;;5.47;4.32;;;;;;;;;;5066441;28;20185;-63
2023/10/24 06:34:10;;;;;;;6.43;3.80;;;;;;;;;;5067791;28;20119;-63
2023/10/24 06:36:36;;;;;;;5.20;4.07;;;;;;;;;;5064195;28;20468;-63
2023/10/24 06:39:07;;;;;;;5.07;3.92;;;;;;;;;;5066510;28;20040;-64
2023/10/24 06:41:34;;;;;;;6.00;4.38;;;;;;;;;;5066893;28;20628;-63
2023/10/24 06:44:00;;;;;;;4.47;3.97;;;;;;;;;;5068169;28;20148;-63
2023/10/24 06:46:26;;;;;;;4.60;3.75;;;;;;;;;;5066912;28;20040;-62
2023/10/24 06:48:53;;;;;;;3.90;3.15;;;;;;;;;;5070272;28;20340;-63
2023/10/24 06:51:19;;;;;;;4.78;4.07;;;;;;;;;;5070871;28;20074;-62
2023/10/24 06:53:45;;;;;;;4.50;3.42;;;;;;;;;;5067449;28;20113;-63
2023/10/24 06:56:11;;;;;;;6.55;3.50;;;;;;;;;;5067747;28;20032;-62
2023/10/24 06:58:37;;;;;;;5.93;4.47;;;;;;;;;;5072792;28;20040;-62
2023/10/24 07:01:04;;;;;;;4.22;3.55;;;;;;;;;;5069136;28;20055;-63
2023/10/24 07:03:30;;;;;;;5.00;3.42;;;;;;;;;;5068233;28;20511;-63
2023/10/24 07:05:57;;;;;;;5.07;3.65;;;;;;;;;;5069317;28;20112;-63
2023/10/24 07:08:23;;;;;;;6.80;3.72;;;;;;;;;;5068387;28;20092;-63
2023/10/24 07:10:50;;;;;;;5.35;2.90;;;;;;;;;;5066851;28;20036;-63
2023/10/24 07:13:16;;;;;;;4.10;3.13;;;;;;;;;;5065588;28;20032;-63
2023/10/24 07:15:42;;;;;;;5.60;3.30;;;;;;;;;;5062101;28;20033;-63
2023/10/24 07:18:08;;;;;;;5.45;3.60;;;;;;;;;;5049374;28;20043;-63
2023/10/24 07:20:37;;;;;;;5.13;3.17;;;12.40;99.90;;;;;;5043979;28;20028;-64
2023/10/24 07:23:05;;;;;;;7.20;3.53;;;;;;;;;;5068870;28;20090;-63
2023/10/24 07:25:32;;;;;;;6.25;4.10;;;;;;;;;;5067796;28;20523;-63
2023/10/24 07:28:05;;;;;;;4.88;3.63;;;;;;;;;;5067701;28;20048;-64
2023/10/24 07:30:31;;;;;;;5.72;3.70;;;;;;;;;;5067584;28;20036;-64
2023/10/24 07:32:58;;;;;;;6.20;3.53;;;;;;;;;;5065814;28;20080;-62
2023/10/24 07:35:24;;;;;;;4.55;3.28;;;;;;;;;;5053988;28;20495;-62
2023/10/24 07:37:50;;;;;;;3.95;3.10;;;;;;;;;;5063206;28;20353;-64
2023/10/24 07:40:17;;;;;;;4.38;2.65;;;;;;;;;;5066858;28;20091;-64
2023/10/24 07:42:43;;;;;;;4.70;3.08;;;;;;;;;;5068218;28;20651;-63
2023/10/24 07:45:11;;;;;;;4.85;3.22;;;;;;;;;;5061918;28;20527;-64
2023/10/24 07:47:37;;;;;;;4.97;3.60;;;;;;;;;;5068770;28;20047;-64
2023/10/24 07:50:03;;;;;;;5.00;3.33;;;;;;;;;;5050736;28;20143;-63
2023/10/24 07:52:29;;;;;;;5.43;3.00;;;;;;;;;;5060243;28;20044;-64
2023/10/24 07:54:56;;;;;;;4.20;3.05;;;;;;;;;;5039309;28;20041;-63
2023/10/24 07:57:22;;;;;;;5.25;3.55;;;;;;;;;;5057308;28;20520;-63
2023/10/24 07:59:48;;;;;;;6.43;3.75;;;;;;;;;;5064528;28;20044;-63
2023/10/24 08:02:14;;;;;;;4.85;3.72;;;;;;;;;;5046800;28;20085;-63
2023/10/24 08:04:40;;;;;;;6.03;3.20;;;;;;;;;;5065399;28;20037;-63
2023/10/24 08:07:06;;;;;;;4.63;3.10;;;;;;;;;;5065014;28;20523;-64
2023/10/24 08:09:32;;;;;;;5.03;3.40;;;;;;;;;;5065375;28;20059;-64
2023/10/24 08:11:59;;;;;;;7.38;3.72;;;;;;;;;;5064095;28;20563;-64
2023/10/24 08:14:26;;;;;;;6.70;4.03;;;;;;;;;;5060470;28;20052;-64
2023/10/24 08:16:52;;;;;;;6.38;3.92;;;;;;;;;;5062854;28;20474;-65
2023/10/24 08:19:18;;;;;;;7.00;4.60;;;;;;;;;;5065088;28;20040;-63
2023/10/24 08:21:44;;;;;;;5.38;4.05;;;;;;;;;;5064608;28;20040;-64
2023/10/24 08:24:10;;;;;;;9.25;4.30;;;;;;;;;;5065670;28;20036;-64
2023/10/24 08:26:37;;;;;;;8.20;4.97;;;;;;;;;;5064251;28;20033;-64
2023/10/24 08:29:04;;;;;;;6.78;5.00;;;;;;;;;;5064223;28;20459;-64
2023/10/24 08:31:30;;;;;;;6.65;5.18;;;;;;;;;;5064443;28;20412;-63
2023/10/24 08:33:56;;;;;;;6.05;4.63;;;;;;;;;;5030165;28;20044;-62
2023/10/24 08:36:22;;;;;;;6.10;4.22;;;;;;;;;;5064113;28;20049;-64
2023/10/24 08:38:48;;;;;;;7.13;4.97;;;;;;;;;;5061611;28;20048;-64
2023/10/24 08:41:15;;;;;;;8.48;5.32;;;;;;;;;;5061264;28;20064;-63
2023/10/24 08:43:41;;;;;;;6.55;4.93;;;;;;;;;;5063917;28;20044;-64
2023/10/24 08:46:07;;;;;;;7.88;5.57;;;;;;;;;;5059299;28;20199;-64
2023/10/24 08:48:34;;;;;;;9.45;5.68;;;;;;;;;;5058910;28;20155;-64
2023/10/24 08:51:00;;;;;;;6.75;4.82;;;;;;;;;;5046683;28;20420;-64
2023/10/24 08:53:28;;;;;;;6.63;4.85;;;;;;;;;;5040930;28;20054;-64
2023/10/24 08:55:57;;;;;;;7.25;5.65;;;;;;;;;;5046686;28;20044;-63
2023/10/24 08:58:23;;;;;;;7.72;5.28;;;;;;;;;;5062940;28;20048;-64
2023/10/24 09:00:50;;;;;;;8.23;6.15;;;;;;;;;;5064511;28;20098;-64
2023/10/24 09:03:17;;;;;;;7.63;6.18;;;;;;;;;;5044806;28;20048;-64
2023/10/24 09:05:44;;;;;;;8.65;5.88;;;;;;;;;;5064486;28;20040;-63
2023/10/24 09:08:10;;;;;;;8.73;5.68;;;;;;;;;;5057295;28;20043;-64
2023/10/24 09:10:36;;;;;;;8.02;5.65;;;;;;;;;;5064672;28;20036;-64
2023/10/24 09:13:06;;;;;;;10.40;5.47;;;;;;;;;;5065125;28;20083;-64
2023/10/24 09:15:34;;;;;;;10.93;6.38;;;;;;;;;;5026226;28;20135;-63
2023/10/24 09:18:07;;;;;;;6.72;5.47;;;;;;;;;;5044170;28;20332;-63
2023/10/24 09:20:33;;;;;;;;;;;;;;;;;;5049813;28;20056;-63
2023/10/24 09:23:06;;;;;;;7.97;5.88;;;;;;;;;;5068837;28;19920;-64
2023/10/24 09:25:32;;;;;;;7.93;5.28;;;;;;;;;;5057800;28;20047;-63
2023/10/24 09:28:34;;;;;;;8.85;6.13;;;;;;;;;;5068525;28;20032;-63
2023/10/24 09:31:01;;;;;;;8.32;6.03;;;;;;;;;;4982920;28;20054;-64
2023/10/24 09:33:33;;;;;;;7.40;5.45;;;;;;;;;;5034697;28;20480;-64
2023/10/24 09:35:59;;;;;;;8.25;6.00;;;;;;;;;;5064642;28;20044;-64
2023/10/24 09:38:25;;;;;;;10.25;6.18;;;;;;;;;;5068621;28;20040;-64
2023/10/24 09:40:52;;;;;;;9.70;6.53;;;;;;;;;;5069728;28;20055;-63
2023/10/24 09:43:22;;;;;;;10.90;5.57;;;;;;;;;;5068278;28;20146;-64
2023/10/24 09:45:51;;;;;;;9.63;7.40;;;;;;;;;;5056523;28;20036;-64
2023/10/24 09:48:17;;;;;;;8.48;6.07;;;;;;;;;;5069100;28;20052;-64
2023/10/24 09:50:43;;;;;;;6.85;5.72;;;;;;;;;;5075072;28;20077;-64
2023/10/24 09:53:10;;;;;;;8.90;6.43;;;;;;;;;;5069087;28;20044;-63
2023/10/24 09:55:37;;;;;;;9.07;5.85;;;;;;;;;;5068659;28;20039;-64
2023/10/24 09:58:04;;;;;;;8.80;6.63;;;;;;;;;;5067827;28;20052;-64
2023/10/24 10:00:31;;;;;;;12.55;6.47;;;;;;;;;;5068254;28;20040;-64
2023/10/24 10:02:58;;;;;;;9.30;6.40;;;;;;;;;;5050341;28;20055;-64
2023/10/24 10:05:26;;;;;;;12.27;7.22;;;;;;;;;;5067864;28;20055;-63
2023/10/24 10:07:53;;;;;;;9.60;6.40;;;;;;;;;;5053004;28;20106;-63
2023/10/24 10:10:20;;;;;;;7.07;5.93;;;;;;;;;;5071908;28;20044;-63
2023/10/24 10:12:47;;;;;;;9.60;6.93;;;;;;;;;;5067573;28;20090;-64
2023/10/24 10:15:36;;;;;;;8.80;7.10;;;;;;;;;;5065736;28;20131;-64
2023/10/24 10:18:02;;;;;;;8.30;6.72;;;;;;;;;;5065681;28;20067;-62
2023/10/24 10:20:48;;;;;;;8.23;5.50;;;;;;;;;;5064944;28;21062;-63
2023/10/24 10:23:28;;;;;;;7.22;6.13;;;;;;;;;;5065526;28;20029;-63
2023/10/24 10:25:54;;;;;;;8.20;6.57;;;;;;;;;;5064200;28;20116;-63
2023/10/24 10:28:26;;;;;;;8.43;6.35;;;;;;;;;;5066457;28;20484;-64
2023/10/24 10:31:19;;;;;;;8.02;6.43;;;;;;;;;;5047976;28;20040;-64
2023/10/24 10:33:45;;;;;;;7.93;6.15;;;;;;;;;;5034050;28;20106;-64
2023/10/24 10:36:12;;;;;;;9.90;6.88;;;;;;;;;;5070090;28;20055;-63
2023/10/24 10:38:38;;;;;;;10.05;6.35;;;;;;;;;;5064798;28;20041;-64
2023/10/24 10:41:26;;;;;;;8.18;6.88;;;;;;;;;;5068497;28;20550;-64
2023/10/24 10:43:59;;;;;;;7.28;6.18;;;;;;;;;;5068385;28;20033;-64
2023/10/24 10:46:29;;;;;;;10.27;6.55;;;;;;;;;;5059715;28;20044;-64
2023/10/24 10:48:59;;;;;;;9.23;5.95;;;;;;;;;;5068654;28;20093;-63
2023/10/24 10:51:33;;;;;;;8.23;5.95;;;;;;;;;;5070422;28;20380;-63
2023/10/24 10:54:09;;;;;;;7.68;5.72;;;;;;;;;;5049990;28;20048;-64
2023/10/24 10:56:36;;;;;;;9.23;6.53;;;;;;;;;;5041402;28;20052;-63
2023/10/24 10:59:05;;;;;;;9.73;7.35;;;;;;;;;;5060443;28;20127;-63
2023/10/24 11:01:31;;;;;;;8.82;6.75;;;;;;;;;;5048905;28;20036;-63
2023/10/24 11:03:59;;;;;;;8.35;6.15;;;;;;;;;;5048685;28;20373;-64
2023/10/24 11:06:28;;;;;;;7.22;5.60;;;;;;;;;;5059443;28;20547;-63
2023/10/24 11:09:08;;;;;;;8.43;6.20;;;;;;;;;;5063490;28;20086;-63
2023/10/24 11:11:35;;;;;;;10.30;6.72;;;;;;;;;;5064429;28;20504;-63
2023/10/24 11:14:14;;;;;;;7.32;5.93;;;;;;;;;;5064093;28;20044;-63
2023/10/24 11:16:44;;;;;;;8.02;5.53;;;;;;;;;;5053506;28;20041;-63
2023/10/24 11:19:24;;;;;;;10.57;6.93;;;12.60;99.90;;;;;;5062884;28;20106;-64
2023/10/24 11:21:51;;;;;;;7.57;6.38;;;;;;;;;;5042947;28;20097;-64
2023/10/24 11:24:20;;;;;;;8.63;5.45;;;;;;;;;;5047416;28;20282;-64
2023/10/24 11:26:46;;;;;;;7.90;5.80;;;;;;;;;;5065225;28;20353;-64
2023/10/24 11:29:15;;;;;;;8.23;5.75;;;;;;;;;;5065203;28;20411;-63
2023/10/24 11:31:45;;;;;;;8.60;6.82;;;;;;;;;;5052182;28;20052;-64
2023/10/24 11:34:15;;;;;;;9.93;7.30;;;;;;;;;;5065812;28;20044;-64
2023/10/24 11:36:42;;;;;;;10.05;6.60;;;;;;;;;;5064793;28;20051;-64
2023/10/24 11:39:09;;;;;;;8.90;6.72;;;;;;;;;;5062663;28;20442;-63
2023/10/24 11:41:36;;;;;;;7.43;6.05;;;;;;;;;;5045347;28;20380;-63
2023/10/24 11:44:02;;;;;;;9.73;6.88;;;;;;;;;;5069151;28;20040;-63
2023/10/24 11:46:28;;;;;;;7.80;5.50;;;;;;;;;;5040628;28;20072;-63
2023/10/24 11:48:54;;;;;;;9.23;6.97;;;;;;;;;;5051837;28;20079;-64
2023/10/24 11:51:20;;;;;;;10.00;7.05;;;;;;;;;;5062121;28;20055;-64
2023/10/24 11:53:47;;;;;;;8.07;6.07;;;;;;;;;;5057764;28;20040;-63
2023/10/24 11:56:13;;;;;;;10.32;7.15;;;;;;;;;;5060980;28;20044;-62
2023/10/24 11:58:42;;;;;;;9.38;7.50;;;;;;;;;;5059269;28;20493;-64
2023/10/24 12:01:08;;;;;;;9.02;6.95;;;;;;;;;;5062302;28;20040;-64
2023/10/24 12:03:42;;;;;;;11.95;6.82;;;;;;;;;;5060034;28;20044;-63
2023/10/24 12:06:08;;;;;;;9.30;7.13;;;12.90;99.90;;;;;;5045658;28;20512;-64
2023/10/24 12:08:34;;;;;;;8.77;6.15;;;13.00;99.90;;;;;;5064089;28;20136;-64
2023/10/24 12:11:00;;;;;;;7.97;6.20;;;13.00;99.90;;;;;;5040471;28;20049;-63
2023/10/24 12:13:26;;;;;;;8.77;6.18;;;13.00;99.90;;;;;;5006565;28;20044;-63
2023/10/24 12:15:56;;;;;;;8.90;6.35;;;13.00;99.90;;;;;;5044471;28;20081;-64
2023/10/24 12:18:22;;;;;;;8.07;6.63;;;13.00;99.90;;;;;;5038624;28;20053;-64
2023/10/24 12:20:48;;;;;;;8.25;5.88;;;13.00;99.90;;;;;;5064193;28;20048;-64
2023/10/24 12:23:16;;;;;;;9.25;6.68;;;13.00;99.90;;;;;;5067949;28;20414;-61
2023/10/24 12:25:43;;;;;;;6.65;5.95;;;13.00;99.90;;;;;;5068867;28;20119;-63
2023/10/24 12:28:08;;;;;;;8.65;6.53;;;13.00;99.90;;;;;;5044236;28;20435;-63
2023/10/24 12:30:34;;;;;;;9.52;7.00;;;13.00;99.90;;;;;;5046569;28;20062;-63
2023/10/24 12:33:00;;;;;;;8.10;6.43;;;13.00;99.90;;;;;;5062441;28;20491;-64
2023/10/24 12:35:26;;;;;;;10.98;7.55;;;13.00;99.90;;;;;;5046871;28;20406;-64
2023/10/24 12:37:52;;;;;;;7.30;5.20;;;13.00;99.90;;;;;;5061165;28;20045;-63
2023/10/24 12:40:19;;;;;;;7.53;6.03;;;13.00;99.90;;;;;;5045420;28;20047;-64
2023/10/24 12:42:45;;;;;;;12.27;6.22;;;13.00;99.90;;;;;;5043599;28;20453;-64
2023/10/24 12:45:11;;;;;;;7.50;6.30;;;13.00;99.90;;;;;;5062880;28;20064;-64
2023/10/24 12:47:37;;;;;;;7.72;6.05;;;13.00;99.90;;;;;;5029487;28;20037;-64
2023/10/24 12:50:03;;;;;;;7.90;6.05;;;13.00;99.90;;;;;;5064635;28;20045;-64
2023/10/24 12:52:29;;;;;;;7.68;6.35;;;13.00;99.90;;;;;;5065553;28;20044;-63
2023/10/24 12:54:55;;;;;;;8.02;6.53;;;13.00;99.90;;;;;;5060602;28;20431;-63
2023/10/24 12:57:21;;;;;;;7.70;5.55;;;13.00;99.90;;;;;;5066687;28;20132;-64
2023/10/24 12:59:47;;;;;;;7.05;5.90;;;13.00;99.90;;;;;;5070099;28;20119;-64
2023/10/24 13:02:14;;;;;;;7.78;5.50;;;13.00;99.90;;;;;;5057013;28;20050;-64
2023/10/24 13:04:44;;;;;;;5.75;4.35;;;13.00;99.90;;;;;;5066325;28;20052;-62
2023/10/24 13:07:12;;;;;;;6.13;4.80;;;13.00;99.90;;;;;;5063301;28;20044;-63
2023/10/24 13:09:38;;;;;;;6.82;6.10;;;13.00;99.90;;;;;;5029679;28;20591;-64
2023/10/24 13:12:05;;;;;;;8.05;5.40;;;13.00;99.90;;;;;;5063622;28;20151;-63
2023/10/24 13:14:31;;;;;;;8.48;6.07;;;;;;;;;;5047365;28;20078;-63
2023/10/24 13:16:58;;;;;;;6.88;5.13;;;;;;;;;;5066576;28;20055;-63
2023/10/24 13:19:27;;;;;;;7.50;5.57;;;;;;;;;;5067027;28;20063;-62
2023/10/24 13:21:53;;;;;;;7.15;5.47;;;;;;;;;;5062839;28;20072;-63
2023/10/24 13:24:19;;;;;;;7.47;5.20;;;;;;;;;;5067245;28;20476;-62
2023/10/24 13:26:46;;;;;;;8.32;6.28;;;;;;;;;;5067159;28;20036;-64
2023/10/24 13:29:13;;;;;;;9.93;5.60;;;;;;;;;;5067306;28;20044;-64
2023/10/24 13:31:42;;;;;;;7.20;6.40;;;;;;;;;;5063988;28;20044;-64
2023/10/24 13:34:09;;;;;;;8.18;6.20;;;;;;;;;;5065895;28;20044;-64
2023/10/24 13:36:35;;;;;;;8.70;6.82;;;;;;;;;;5050304;28;20040;-64
2023/10/24 13:39:02;;;;;;;6.90;5.75;;;;;;;;;;5066047;28;20083;-64
2023/10/24 13:41:28;;;;;;;7.63;5.90;;;;;;;;;;5067261;28;20114;-62
2023/10/24 13:43:57;;;;;;;8.95;7.07;;;;;;;;;;5048176;28;20041;-64
2023/10/24 13:46:23;;;;;;;8.85;6.47;;;;;;;;;;5049640;28;20044;-63
2023/10/24 13:48:50;;;;;;;9.07;6.90;;;;;;;;;;5060643;28;20535;-62
2023/10/24 13:51:16;;;;;;;7.20;6.22;;;;;;;;;;5066181;28;20103;-64
2023/10/24 13:53:42;;;;;;;10.85;7.53;;;;;;;;;;5062101;28;20543;-64
2023/10/24 13:56:08;;;;;;;8.73;6.55;;;;;;;;;;5066208;28;20060;-64
2023/10/24 13:58:34;;;;;;;9.40;7.60;;;;;;;;;;5064877;28;20062;-62
2023/10/24 14:01:01;;;;;;;9.23;7.70;;;;;;;;;;5069500;28;20094;-63
2023/10/24 14:03:27;;;;;;;8.27;6.50;;;;;;;;;;5026402;28;20032;-63
2023/10/24 14:05:53;;;;;;;8.10;6.75;;;;;;;;;;5060620;28;20511;-63
2023/10/24 14:08:19;;;;;;;11.45;7.50;;;;;;;;;;5065770;28;20045;-62
2023/10/24 14:10:45;;;;;;;9.35;7.40;;;;;;;;;;5062254;28;20055;-62
2023/10/24 14:13:11;;;;;;;10.57;8.32;;;;;;;;;;5060194;28;20045;-62
2023/10/24 14:15:37;;;;;;;8.88;7.10;;;;;;;;;;5060476;28;20123;-63
2023/10/24 14:18:04;;;;;;;7.82;6.53;;;;;;;;;;5064227;28;20151;-62
2023/10/24 14:20:33;;;;;;;10.07;7.35;;;;;;;;;;5044603;28;20032;-63
2023/10/24 14:22:59;;;;;;;7.80;7.00;;;;;;;;;;5048288;28;20041;-63
2023/10/24 14:25:26;;;;;;;9.70;7.30;;;;;;;;;;5065094;28;20048;-63